Current Weather

San Carlos

San Carlos, California (KSQL)

Report from: Saturday, July 13, 2024 5:47 PM PDT
Current time: Saturday, July 13, 2024 6:45 PM PDT

Nearby weather – Weather history – Daily summaries
Weather forecast

Temperature24.0°C (75.2°F)
Dew point14.0°C (57.2°F)
Winds 7 kts (3.6 m/s, 8.1 mph) North (350°)
Visibility10 mi. (16.1 km)
Clouds Sky clear
Altimeter29.90 in.Hg (1013 mB)
Relative humidity54 %
Density altitude1,291 ft. (394 m)
Flight conditions Visual Meteorological Conditions
Raw dataKSQL 140047Z 35007KT 10SM CLR 24/14 A2990
An error has occurred. This application may no longer respond until reloaded. Reload 🗙